Time;durP1;ratioP1;P1;durP2;ratioP2;P2;SDS_P1;SDS_P2;PMS_P1;PMS_P2;Temp;Humidity;BMP_temperature;BMP_pressure;BME280_temperature;BME280_humidity;BME280_pressure;Samples;Min_cycle;Max_cycle;Signal;HPM_P1;HPM_P2
2023/04/10 00:02:07;;;;;;;71.22;50.45;;;7.10;99.90;;;;;;5008261;28;20050;-74
2023/04/10 00:04:33;;;;;;;68.90;51.03;;;7.20;99.90;;;;;;5015218;28;20046;-73
2023/04/10 00:06:59;;;;;;;68.35;51.80;;;7.10;99.90;;;;;;5008314;28;20045;-73
2023/04/10 00:09:25;;;;;;;69.38;52.35;;;7.20;99.90;;;;;;4994513;28;20132;-73
2023/04/10 00:11:50;;;;;;;66.07;50.70;;;7.10;99.90;;;;;;4999415;28;20053;-73
2023/04/10 00:14:21;;;;;;;67.10;52.55;;;7.10;99.90;;;;;;4991770;28;20045;-74
2023/04/10 00:16:48;;;;;;;69.65;53.35;;;7.10;99.90;;;;;;5008071;28;20045;-73
2023/04/10 00:19:13;;;;;;;71.65;52.88;;;7.10;99.90;;;;;;5006380;28;20038;-73
2023/04/10 00:21:40;;;;;;;73.32;55.30;;;7.10;99.90;;;;;;4999803;28;20034;-73
2023/04/10 00:24:05;;;;;;;69.45;55.50;;;7.10;99.90;;;;;;4998416;28;20046;-73
2023/04/10 00:26:31;;;;;;;69.50;55.53;;;7.10;99.90;;;;;;4998916;28;20389;-73
2023/04/10 00:28:56;;;;;;;73.20;55.85;;;7.10;99.90;;;;;;4998532;28;20129;-73
2023/04/10 00:31:22;;;;;;;71.75;55.38;;;7.10;99.90;;;;;;4999730;28;20034;-73
2023/04/10 00:33:48;;;;;;;73.82;56.58;;;7.10;99.90;;;;;;4999069;28;20056;-73
2023/04/10 00:36:13;;;;;;;75.13;58.03;;;7.10;99.90;;;;;;4998948;28;20041;-72
2023/04/10 00:38:39;;;;;;;77.32;56.03;;;7.00;99.90;;;;;;5000322;28;20583;-73
2023/04/10 00:41:05;;;;;;;74.10;56.47;;;7.00;99.90;;;;;;4993897;28;20109;-73
2023/04/10 00:43:30;;;;;;;76.53;58.30;;;6.90;99.90;;;;;;5023574;27;20038;-73
2023/04/10 00:45:56;;;;;;;75.70;58.53;;;6.90;99.90;;;;;;5003224;28;20049;-73
2023/04/10 00:48:22;;;;;;;75.50;59.17;;;6.90;99.90;;;;;;5003239;28;20057;-73
2023/04/10 00:50:47;;;;;;;75.75;57.80;;;6.80;99.90;;;;;;4998670;28;20772;-73
2023/04/10 00:53:13;;;;;;;75.50;57.30;;;6.80;99.90;;;;;;5006153;28;20038;-73
2023/04/10 00:55:39;;;;;;;74.93;56.20;;;6.80;99.90;;;;;;4996540;28;20038;-72
2023/04/10 00:58:05;;;;;;;73.13;58.10;;;6.80;99.90;;;;;;5018928;28;20512;-73
2023/04/10 01:00:31;;;;;;;74.85;58.25;;;6.70;99.90;;;;;;5106723;28;20465;-73
2023/04/10 01:02:59;;;;;;;74.07;57.00;;;6.70;99.90;;;;;;5109685;28;20044;-73
2023/04/10 01:05:30;;;;;;;77.75;59.47;;;6.70;99.90;;;;;;5110039;28;20048;-73
2023/04/10 01:08:20;;;;;;;78.15;59.50;;;6.60;99.90;;;;;;5108747;27;20031;-73
2023/04/10 01:10:59;;;;;;;79.95;60.25;;;6.60;99.90;;;;;;5090550;28;20044;-75
2023/04/10 01:13:33;;;;;;;80.60;59.15;;;6.60;99.90;;;;;;5106971;28;20516;-73
2023/04/10 01:16:09;;;;;;;77.22;60.72;;;6.60;99.90;;;;;;5108882;28;20516;-76
2023/04/10 01:18:47;;;;;;;77.97;60.92;;;6.50;99.90;;;;;;5099666;27;20533;-73
2023/04/10 01:21:15;;;;;;;77.72;60.90;;;6.50;99.90;;;;;;5098077;28;20726;-73
2023/04/10 01:23:49;;;;;;;76.82;60.80;;;6.50;99.90;;;;;;5103354;28;20035;-73
2023/04/10 01:26:22;;;;;;;84.20;60.20;;;6.40;99.90;;;;;;5106221;28;20535;-73
2023/04/10 01:29:05;;;;;;;81.55;59.10;;;6.50;99.90;;;;;;5101599;28;20043;-74
2023/04/10 01:31:55;;;;;;;81.82;60.65;;;6.40;99.90;;;;;;5102133;28;20046;-74
2023/04/10 01:34:25;;;;;;;80.10;61.60;;;6.40;99.90;;;;;;5101813;28;20151;-73
2023/04/10 01:36:58;;;;;;;79.13;61.45;;;6.40;99.90;;;;;;5100383;28;20043;-74
2023/04/10 01:39:25;;;;;;;79.45;61.20;;;6.40;99.90;;;;;;5100435;28;20074;-74
2023/04/10 01:41:52;;;;;;;77.80;60.22;;;6.40;99.90;;;;;;5100308;28;20130;-74
2023/04/10 01:44:22;;;;;;;79.82;61.97;;;6.30;99.90;;;;;;5099647;28;20043;-74
2023/04/10 01:46:49;;;;;;;82.45;63.25;;;6.30;99.90;;;;;;5094962;28;20059;-74
2023/04/10 01:49:16;;;;;;;82.90;61.85;;;6.30;99.90;;;;;;5096381;28;20097;-73
2023/04/10 01:51:43;;;;;;;80.53;61.85;;;6.20;99.90;;;;;;5098373;28;20031;-73
2023/04/10 01:54:09;;;;;;;87.37;67.03;;;6.20;99.90;;;;;;5130399;27;20039;-73
2023/04/10 01:56:35;;;;;;;85.60;63.95;;;6.20;99.90;;;;;;5082496;28;20058;-74
2023/04/10 01:59:02;;;;;;;80.10;62.90;;;6.20;99.90;;;;;;5044279;27;20057;-74
2023/04/10 02:01:28;;;;;;;83.20;63.30;;;6.20;99.90;;;;;;5081685;28;20048;-74
2023/04/10 02:03:54;;;;;;;83.57;64.28;;;6.20;99.90;;;;;;5086048;28;20471;-74
2023/04/10 02:06:47;;;;;;;82.55;63.85;;;6.20;99.90;;;;;;5084796;28;20050;-74
2023/04/10 02:09:48;;;;;;;83.13;64.35;;;6.20;99.90;;;;;;5084060;28;20064;-74
2023/04/10 02:12:30;;;;;;;83.50;63.63;;;6.10;99.90;;;;;;5074221;28;20059;-74
2023/04/10 02:15:00;;;;;;;82.07;64.68;;;6.20;99.90;;;;;;5073199;28;20052;-73
2023/04/10 02:17:30;;;;;;;81.95;64.10;;;6.10;99.90;;;;;;5072125;28;20063;-74
2023/04/10 02:19:57;;;;;;;86.72;64.07;;;6.20;99.90;;;;;;5074320;28;20131;-74
2023/04/10 02:22:24;;;;;;;82.68;63.67;;;6.10;99.90;;;;;;5069446;28;20048;-74
2023/04/10 02:24:51;;;;;;;86.05;64.05;;;6.10;99.90;;;;;;5070429;28;20744;-74
2023/04/10 02:27:29;;;;;;;81.85;63.15;;;6.10;99.90;;;;;;5071925;28;20059;-74
2023/04/10 02:29:55;;;;;;;81.43;62.08;;;6.00;99.90;;;;;;5070835;28;20055;-74
2023/04/10 02:32:21;;;;;;;86.63;65.38;;;6.10;99.90;;;;;;5071839;28;20052;-73
2023/04/10 02:34:47;;;;;;;80.75;62.55;;;6.10;99.90;;;;;;5069189;28;20079;-74
2023/04/10 02:37:13;;;;;;;81.03;62.67;;;6.10;99.90;;;;;;5070268;28;20462;-73
2023/04/10 02:39:38;;;;;;;83.15;62.25;;;6.10;99.90;;;;;;5076504;28;20419;-73
2023/04/10 02:42:04;;;;;;;85.90;63.95;;;6.10;99.90;;;;;;5080824;28;20537;-74
2023/04/10 02:44:29;;;;;;;81.57;63.10;;;6.10;99.90;;;;;;5081143;28;20044;-74
2023/04/10 02:46:55;;;;;;;85.10;64.75;;;6.10;99.90;;;;;;5072759;28;20040;-75
2023/04/10 02:49:20;;;;;;;81.30;57.83;;;6.10;99.90;;;;;;5030818;27;20046;-75
2023/04/10 02:51:46;;;;;;;80.45;62.30;;;6.10;99.90;;;;;;5024313;28;20048;-74
2023/04/10 02:54:12;;;;;;;81.60;63.53;;;6.20;99.90;;;;;;5026233;28;20038;-74
2023/04/10 02:56:37;;;;;;;82.50;64.65;;;6.10;99.90;;;;;;5032399;27;20090;-74
2023/04/10 02:59:03;;;;;;;81.82;64.50;;;6.10;99.90;;;;;;5025488;27;20068;-74
2023/04/10 03:01:29;;;;;;;85.07;64.65;;;6.10;99.90;;;;;;5028927;27;20955;-73
2023/04/10 03:03:56;;;;;;;80.15;62.50;;;6.10;99.90;;;;;;5027767;27;20325;-74
2023/04/10 03:06:25;;;;;;;82.13;64.25;;;6.10;99.90;;;;;;5033102;28;20045;-74
2023/04/10 03:08:50;;;;;;;78.30;62.42;;;6.10;99.90;;;;;;5090777;28;20072;-74
2023/04/10 03:11:16;;;;;;;87.65;65.10;;;6.10;99.90;;;;;;5023003;28;20046;-74
2023/04/10 03:13:41;;;;;;;81.47;62.63;;;6.00;99.90;;;;;;5088115;28;20041;-75
2023/04/10 03:16:07;;;;;;;81.88;63.20;;;6.10;99.90;;;;;;5022016;28;20043;-75
2023/04/10 03:18:33;;;;;;;82.78;63.33;;;6.00;99.90;;;;;;5021458;28;20041;-75
2023/04/10 03:21:00;;;;;;;81.32;62.63;;;6.00;99.90;;;;;;5020985;28;20077;-74
2023/04/10 03:23:26;;;;;;;77.03;57.73;;;6.00;99.90;;;;;;5021356;28;20406;-74
2023/04/10 03:25:53;;;;;;;81.35;61.45;;;6.00;99.90;;;;;;5024081;28;20091;-74
2023/04/10 03:28:22;;;;;;;80.47;62.17;;;6.00;99.90;;;;;;5023457;28;20053;-74
2023/04/10 03:30:49;;;;;;;82.55;64.78;;;5.90;99.90;;;;;;5069999;28;20127;-73
2023/04/10 03:33:15;;;;;;;80.67;63.40;;;5.90;99.90;;;;;;5086003;28;21005;-74
2023/04/10 03:35:41;;;;;;;78.63;60.33;;;5.90;99.90;;;;;;5022405;28;20045;-74
2023/04/10 03:38:07;;;;;;;80.70;61.97;;;5.90;99.90;;;;;;5022025;27;20145;-73
2023/04/10 03:40:33;;;;;;;80.55;59.10;;;5.80;99.90;;;;;;5018429;28;20487;-73
2023/04/10 03:42:59;;;;;;;81.57;62.97;;;5.80;99.90;;;;;;5020952;27;20042;-73
2023/04/10 03:45:25;;;;;;;78.97;60.88;;;5.80;99.90;;;;;;5021959;28;20464;-73
2023/04/10 03:47:53;;;;;;;82.20;62.28;;;5.80;99.90;;;;;;5019725;28;20125;-73
2023/04/10 03:50:19;;;;;;;83.55;62.58;;;5.80;99.90;;;;;;5079402;28;20507;-73
2023/04/10 03:52:45;;;;;;;78.45;59.33;;;5.80;99.90;;;;;;5094352;28;20049;-73
2023/04/10 03:55:11;;;;;;;80.53;61.28;;;5.80;99.90;;;;;;5028194;28;20061;-74
2023/04/10 03:57:36;;;;;;;76.38;60.03;;;5.80;99.90;;;;;;5036086;27;20800;-74
2023/04/10 04:00:04;;;;;;;78.57;62.85;;;5.70;99.90;;;;;;5028024;28;20117;-74
2023/04/10 04:02:30;;;;;;;77.55;61.17;;;5.70;99.90;;;;;;5027674;28;20037;-74
2023/04/10 04:04:55;;;;;;;79.32;60.40;;;5.70;99.90;;;;;;5027814;28;20448;-74
2023/04/10 04:07:21;;;;;;;79.75;61.75;;;5.70;99.90;;;;;;5028734;27;20061;-73
2023/04/10 04:09:47;;;;;;;81.13;60.17;;;5.80;99.90;;;;;;5028960;27;20175;-74
2023/04/10 04:12:12;;;;;;;80.22;61.42;;;5.70;99.90;;;;;;5028193;28;20387;-75
2023/04/10 04:14:38;;;;;;;79.45;60.75;;;5.70;99.90;;;;;;5028953;27;20371;-74
2023/04/10 04:17:04;;;;;;;78.10;58.53;;;5.70;99.90;;;;;;5090675;28;20037;-74
2023/04/10 04:19:29;;;;;;;74.90;57.83;;;5.70;99.90;;;;;;5027644;28;20042;-74
2023/04/10 04:21:55;;;;;;;74.55;57.03;;;5.70;99.90;;;;;;5026313;27;20548;-74
2023/04/10 04:24:21;;;;;;;76.85;58.53;;;5.70;99.90;;;;;;5025632;28;20465;-74
2023/04/10 04:26:46;;;;;;;76.65;58.92;;;5.70;99.90;;;;;;5021269;28;20043;-76
2023/04/10 04:29:12;;;;;;;75.43;57.75;;;5.70;99.90;;;;;;5019273;28;21334;-74
2023/04/10 04:31:37;;;;;;;78.80;58.90;;;5.60;99.90;;;;;;5082866;28;20599;-74
2023/04/10 04:34:03;;;;;;;75.00;57.88;;;5.70;99.90;;;;;;5020075;28;20037;-74
2023/04/10 04:36:30;;;;;;;75.90;57.42;;;5.70;99.90;;;;;;5020574;28;20098;-74
2023/04/10 04:38:55;;;;;;;74.38;57.38;;;5.70;99.90;;;;;;5019283;28;20046;-74
2023/04/10 04:41:21;;;;;;;78.50;58.72;;;5.70;99.90;;;;;;5020204;28;20039;-74
2023/04/10 04:43:48;;;;;;;76.25;58.55;;;5.70;99.90;;;;;;5017924;28;20041;-74
2023/04/10 04:46:13;;;;;;;75.78;57.70;;;5.70;99.90;;;;;;5012189;28;20372;-74
2023/04/10 04:48:39;;;;;;;77.97;58.83;;;5.70;99.90;;;;;;5015599;28;20064;-74
2023/04/10 04:51:08;;;;;;;77.10;57.17;;;5.70;99.90;;;;;;5082940;28;20112;-73
2023/04/10 04:53:33;;;;;;;77.15;56.97;;;5.70;99.90;;;;;;5022821;27;20061;-73
2023/04/10 04:55:59;;;;;;;74.43;58.35;;;5.70;99.90;;;;;;5020035;28;20039;-74
2023/04/10 04:58:25;;;;;;;74.10;55.95;;;5.70;99.90;;;;;;5082489;28;20053;-73
2023/04/10 05:00:51;;;;;;;74.47;56.95;;;5.70;99.90;;;;;;5019475;28;20038;-73
2023/04/10 05:03:17;;;;;;;75.03;56.97;;;5.70;99.90;;;;;;5083203;28;20053;-73
2023/04/10 05:05:42;;;;;;;73.25;56.65;;;5.70;99.90;;;;;;5019722;28;20407;-73
2023/04/10 05:08:09;;;;;;;72.30;55.03;;;5.70;99.90;;;;;;5021538;28;20448;-73
2023/04/10 05:10:35;;;;;;;73.93;56.00;;;5.70;99.90;;;;;;5021208;28;20148;-73
2023/04/10 05:13:01;;;;;;;76.63;55.72;;;5.70;99.90;;;;;;5020441;27;20101;-74
2023/04/10 05:15:27;;;;;;;73.40;55.72;;;5.70;99.90;;;;;;5019525;28;20133;-74
2023/04/10 05:17:53;;;;;;;71.43;54.97;;;5.80;99.90;;;;;;5019804;28;20054;-73
2023/04/10 05:20:20;;;;;;;72.32;55.53;;;5.90;99.90;;;;;;5019260;28;20057;-73
2023/04/10 05:22:46;;;;;;;73.50;55.15;;;5.90;99.90;;;;;;5021676;28;20042;-75
2023/04/10 05:25:12;;;;;;;71.60;53.83;;;6.00;99.90;;;;;;5023597;28;20038;-76
2023/04/10 05:27:37;;;;;;;68.07;51.78;;;6.00;99.90;;;;;;5025292;27;20128;-75
2023/04/10 05:30:03;;;;;;;71.40;54.42;;;6.10;99.90;;;;;;5022567;27;20090;-75
2023/04/10 05:32:29;;;;;;;68.88;53.83;;;6.20;99.90;;;;;;5021165;27;20475;-75
2023/04/10 05:34:55;;;;;;;69.50;52.63;;;6.30;99.90;;;;;;5024570;28;20453;-74
2023/04/10 05:37:20;;;;;;;70.47;53.88;;;6.40;99.90;;;;;;5024539;28;20067;-75
2023/04/10 05:39:46;;;;;;;67.45;52.30;;;6.50;99.90;;;;;;5023578;28;20486;-75
2023/04/10 05:42:12;;;;;;;71.60;55.13;;;6.60;99.90;;;;;;5025055;28;20128;-75
2023/04/10 05:44:38;;;;;;;69.97;52.58;;;6.70;99.90;;;;;;5023398;28;20079;-74
2023/04/10 05:47:04;;;;;;;67.07;52.35;;;6.80;99.90;;;;;;5025706;28;20042;-73
2023/04/10 05:49:30;;;;;;;65.65;52.58;;;6.90;99.90;;;;;;5025304;28;20446;-73
2023/04/10 05:51:55;;;;;;;66.78;52.15;;;7.00;99.90;;;;;;5088613;28;20049;-74
2023/04/10 05:54:21;;;;;;;66.93;51.38;;;7.20;99.90;;;;;;5095890;28;20494;-74
2023/04/10 05:56:47;;;;;;;67.57;52.28;;;7.30;99.90;;;;;;5027246;28;20042;-73
2023/04/10 05:59:12;;;;;;;64.70;50.97;;;7.50;99.90;;;;;;5024412;28;20054;-73
2023/04/10 06:01:39;;;;;;;65.95;51.33;;;8.00;99.90;;;;;;5026109;28;20069;-73
2023/04/10 06:04:05;;;;;;;64.85;51.45;;;8.70;99.90;;;;;;5026309;28;20068;-73
2023/04/10 06:06:31;;;;;;;65.35;50.78;;;8.80;99.90;;;;;;5025840;28;20470;-73
2023/04/10 06:08:57;;;;;;;65.53;51.45;;;;;;;;;;5028337;27;20057;-74
2023/04/10 06:11:23;;;;;;;64.65;50.92;;;9.80;99.90;;;;;;5091976;28;20077;-74
2023/04/10 06:13:49;;;;;;;63.70;49.67;;;9.90;99.90;;;;;;5024391;28;20150;-74
2023/04/10 06:16:15;;;;;;;64.10;49.08;;;;;;;;;;5025765;28;20045;-74
2023/04/10 06:18:41;;;;;;;64.22;49.00;;;;;;;;;;5025392;28;20138;-74
2023/04/10 06:21:07;;;;;;;62.33;49.78;;;;;;;;;;5091036;28;20053;-74
2023/04/10 06:23:33;;;;;;;59.50;47.45;;;11.10;99.90;;;;;;5082822;28;20042;-74
2023/04/10 06:26:00;;;;;;;57.40;46.95;;;11.20;99.90;;;;;;5018028;28;20044;-76
2023/04/10 06:28:26;;;;;;;59.35;46.88;;;11.40;99.90;;;;;;5018650;28;20131;-74
2023/04/10 06:30:53;;;;;;;54.25;43.75;;;11.60;99.90;;;;;;5081756;28;20052;-74
2023/04/10 06:33:19;;;;;;;53.90;43.42;;;;;;;;;;5019900;28;20045;-75
2023/04/10 06:35:45;;;;;;;51.85;42.53;;;12.20;99.90;;;;;;5084068;28;20056;-73
2023/04/10 06:38:11;;;;;;;55.20;43.67;;;12.10;99.90;;;;;;5087675;28;20034;-76
2023/04/10 06:40:37;;;;;;;51.67;42.25;;;;;;;;;;5087462;28;20139;-77
2023/04/10 06:43:02;;;;;;;49.40;41.40;;;12.50;99.90;;;;;;5020395;28;20168;-74
2023/04/10 06:45:28;;;;;;;49.90;38.47;;;12.70;99.90;;;;;;5017694;28;20132;-74
2023/04/10 06:47:54;;;;;;;48.72;38.33;;;12.90;99.90;;;;;;5066300;28;20067;-77
2023/04/10 06:50:19;;;;;;;42.03;34.45;;;12.70;99.90;;;;;;5026551;28;20096;-76
2023/04/10 06:52:46;;;;;;;41.00;34.92;;;12.30;99.90;;;;;;5087414;28;20065;-76
2023/04/10 06:55:12;;;;;;;39.50;32.42;;;11.90;99.90;;;;;;5029535;28;20063;-78
2023/04/10 06:57:39;;;;;;;35.90;30.08;;;11.80;99.90;;;;;;5083651;28;20053;-76
2023/04/10 07:00:07;;;;;;;37.58;30.60;;;11.50;99.90;;;;;;5010130;28;20532;-76
2023/04/10 07:02:32;;;;;;;34.97;29.65;;;11.40;99.90;;;;;;5027222;28;20376;-77
2023/04/10 07:04:58;;;;;;;36.65;30.27;;;11.60;99.90;;;;;;5033294;28;20048;-75
2023/04/10 07:07:24;;;;;;;35.00;29.45;;;11.50;99.90;;;;;;5023616;28;20057;-76
2023/04/10 07:09:50;;;;;;;37.65;31.05;;;11.60;99.90;;;;;;5044059;28;20812;-79
2023/04/10 07:12:15;;;;;;;38.15;31.08;;;11.40;99.90;;;;;;5037167;28;20046;-76
2023/04/10 07:14:41;;;;;;;37.47;30.70;;;11.40;99.90;;;;;;5032986;28;20034;-77
2023/04/10 07:17:07;;;;;;;38.15;32.00;;;11.20;99.90;;;;;;5039581;28;20091;-77
2023/04/10 07:19:33;;;;;;;37.97;31.83;;;11.40;99.90;;;;;;5045133;28;20037;-78
2023/04/10 07:22:00;;;;;;;38.72;33.35;;;11.40;99.90;;;;;;5027896;28;20073;-79
2023/04/10 07:24:26;;;;;;;39.90;32.03;;;11.50;99.90;;;;;;5030416;27;20049;-78
2023/04/10 07:26:51;;;;;;;39.55;32.97;;;11.70;99.90;;;;;;5042300;28;20993;-77
2023/04/10 07:29:17;;;;;;;39.30;32.42;;;11.60;99.90;;;;;;5038183;27;20037;-78
2023/04/10 07:31:43;;;;;;;40.85;32.22;;;11.40;99.90;;;;;;5054308;27;22498;-78
2023/04/10 07:34:10;;;;;;;41.75;31.90;;;11.50;99.90;;;;;;5058063;27;20110;-77
2023/04/10 07:36:36;;;;;;;39.77;31.67;;;11.60;99.90;;;;;;5050230;27;20037;-78
2023/04/10 07:39:02;;;;;;;39.97;32.33;;;11.50;99.90;;;;;;5040167;27;20744;-77
2023/04/10 07:41:28;;;;;;;38.05;31.58;;;11.60;99.90;;;;;;5048822;27;20501;-77
2023/04/10 07:43:54;;;;;;;40.15;31.80;;;11.60;99.90;;;;;;5068521;27;20050;-77
2023/04/10 07:46:20;;;;;;;37.67;30.42;;;11.80;99.90;;;;;;5034227;27;20073;-77
2023/04/10 07:48:46;;;;;;;33.78;28.48;;;11.90;99.90;;;;;;5048467;27;20465;-77
2023/04/10 07:51:12;;;;;;;34.03;28.83;;;12.20;99.90;;;;;;5011143;28;20079;-77
2023/04/10 07:53:38;;;;;;;32.25;26.83;;;12.30;99.90;;;;;;5014936;27;20411;-77
2023/04/10 07:56:05;;;;;;;31.08;26.23;;;12.50;99.90;;;;;;5039977;27;20069;-76
2023/04/10 07:58:31;;;;;;;30.60;25.95;;;12.60;99.90;;;;;;5031514;27;20057;-77
2023/04/10 08:00:57;;;;;;;27.52;24.15;;;12.60;99.90;;;;;;5027153;28;20044;-77
2023/04/10 08:03:23;;;;;;;28.08;24.17;;;12.70;99.90;;;;;;5026776;28;20050;-77
2023/04/10 08:05:49;;;;;;;27.13;23.25;;;12.80;99.90;;;;;;5028185;28;20054;-77
2023/04/10 08:08:15;;;;;;;26.98;21.88;;;12.90;99.90;;;;;;5027013;28;20045;-77
2023/04/10 08:10:41;;;;;;;28.17;21.85;;;13.00;99.90;;;;;;5093716;28;20042;-77
2023/04/10 08:13:07;;;;;;;23.42;20.52;;;13.30;99.90;;;;;;5027500;27;20045;-77
2023/04/10 08:15:33;;;;;;;22.35;19.48;;;13.30;99.90;;;;;;5025347;28;20061;-77
2023/04/10 08:17:59;;;;;;;20.92;18.42;;;13.40;99.90;;;;;;5086900;28;20045;-77
2023/04/10 08:20:24;;;;;;;23.02;19.55;;;13.60;99.90;;;;;;5028536;28;20045;-76
2023/04/10 08:22:50;;;;;;;22.15;18.83;;;13.70;99.90;;;;;;5087608;28;20037;-77
2023/04/10 08:25:16;;;;;;;20.38;17.98;;;13.70;99.90;;;;;;5030519;28;20034;-77
2023/04/10 08:27:41;;;;;;;19.10;17.02;;;14.00;99.90;;;;;;5031737;28;20033;-77
2023/04/10 08:30:07;;;;;;;18.33;15.68;;;14.20;99.90;;;;;;5099397;28;20045;-77
2023/04/10 08:32:34;;;;;;;17.60;15.57;;;14.30;99.90;;;;;;5025184;27;20368;-77
2023/04/10 08:35:00;;;;;;;17.75;15.55;;;14.40;99.90;;;;;;5039708;28;20047;-77
2023/04/10 08:37:25;;;;;;;16.42;14.73;;;14.60;99.90;;;;;;5034647;27;20037;-77
2023/04/10 08:39:51;;;;;;;16.73;14.90;;;14.70;99.90;;;;;;5035623;27;20034;-77
2023/04/10 08:42:17;;;;;;;16.88;14.13;;;14.70;99.90;;;;;;5057041;27;20036;-77
2023/04/10 08:44:43;;;;;;;15.35;13.73;;;14.70;99.90;;;;;;5031401;28;20045;-76
2023/04/10 08:47:09;;;;;;;16.63;14.80;;;14.70;99.90;;;;;;5034858;27;20483;-77
2023/04/10 08:49:43;;;;;;;15.73;14.13;;;14.40;99.90;;;;;;5097127;28;20038;-77
2023/04/10 08:52:17;;;;;;;18.13;14.68;;;14.40;99.90;;;;;;5074122;28;20041;-77
2023/04/10 08:54:47;;;;;;;18.98;15.00;;;14.50;99.90;;;;;;5035891;27;20112;-77
2023/04/10 08:57:19;;;;;;;16.48;14.77;;;14.60;99.90;;;;;;5035104;27;20039;-77
2023/04/10 08:59:46;;;;;;;18.02;14.05;;;14.70;99.90;;;;;;5028704;27;20061;-77
2023/04/10 09:02:12;;;;;;;15.38;13.77;;;14.70;99.90;;;;;;5097499;27;20037;-77
2023/04/10 09:04:38;;;;;;;16.08;13.45;;;14.80;99.90;;;;;;5031784;28;20051;-77
2023/04/10 09:07:03;;;;;;;18.60;14.23;;;15.00;99.90;;;;;;5026269;27;20535;-76
2023/04/10 09:09:31;;;;;;;15.32;13.73;;;15.10;99.90;;;;;;5071323;28;20049;-77
2023/04/10 09:11:59;;;;;;;15.85;13.57;;;15.50;99.90;;;;;;5022445;27;20048;-77
2023/04/10 09:14:33;;;;;;;15.27;13.65;;;15.10;99.90;;;;;;5028509;27;20124;-77
2023/04/10 09:17:19;;;;;;;15.48;13.82;;;15.10;99.90;;;;;;5025323;28;20525;-75
2023/04/10 09:19:47;;;;;;;15.23;13.63;;;15.50;99.90;;;;;;5030405;28;20037;-77
2023/04/10 09:22:14;;;;;;;;;;;15.70;99.90;;;;;;5093893;28;20042;-77
2023/04/10 09:24:42;;;;;;;15.23;13.07;;;15.60;99.90;;;;;;5041976;27;19939;-77
2023/04/10 09:27:08;;;;;;;;;;;15.50;99.90;;;;;;5032685;27;20599;-76
2023/04/10 09:29:47;;;;;;;14.10;12.70;;;15.50;99.90;;;;;;5120379;27;19928;-77
2023/04/10 09:32:13;;;;;;;14.00;12.50;;;15.60;99.90;;;;;;5020731;28;20049;-77
2023/04/10 09:34:53;;;;;;;14.80;11.63;;;15.80;99.90;;;;;;5096651;28;20037;-77
2023/04/10 09:37:21;;;;;;;13.20;11.68;;;15.70;99.60;;;;;;5098285;28;20344;-77
2023/04/10 09:39:47;;;;;;;13.65;11.45;;;15.70;99.00;;;;;;5029646;28;20037;-77
2023/04/10 09:42:14;;;;;;;12.75;11.45;;;15.80;99.60;;;;;;5089231;28;20499;-77
2023/04/10 09:44:40;;;;;;;14.57;11.23;;;16.00;99.60;;;;;;5026902;27;20428;-77
2023/04/10 09:47:20;;;;;;;15.70;11.75;;;16.10;99.40;;;;;;5087524;28;20418;-77
2023/04/10 09:49:59;;;;;;;14.65;11.30;;;16.00;99.50;;;;;;5024395;27;20496;-77
2023/04/10 09:52:34;;;;;;;15.18;11.13;;;16.20;99.90;;;;;;5025660;28;20125;-77
2023/04/10 09:55:02;;;;;;;11.52;9.85;;;15.90;98.40;;;;;;5030092;28;20451;-77
2023/04/10 09:57:29;;;;;;;10.38;9.27;;;16.10;99.40;;;;;;5024389;27;20059;-77
2023/04/10 09:59:58;;;;;;;10.85;9.63;;;16.20;99.10;;;;;;5025953;28;21557;-77
2023/04/10 10:02:27;;;;;;;13.27;9.00;;;16.00;97.50;;;;;;5087559;28;20041;-77
2023/04/10 10:04:53;;;;;;;9.70;8.70;;;16.30;99.00;;;;;;5026973;28;20045;-77
2023/04/10 10:07:22;;;;;;;11.07;9.18;;;16.30;98.40;;;;;;5071058;28;20050;-78
2023/04/10 10:09:51;;;;;;;10.27;9.18;;;16.00;97.50;;;;;;5021900;28;20098;-77
2023/04/10 10:12:41;;;;;;;11.18;9.55;;;16.10;98.10;;;;;;5119289;27;20070;-77
2023/04/10 10:15:30;;;;;;;12.65;9.30;;;16.30;97.80;;;;;;5029581;28;20457;-77
2023/04/10 10:18:11;;;;;;;9.15;8.25;;;16.30;97.30;;;;;;5029712;28;20047;-76
2023/04/10 10:20:38;;;;;;;10.32;8.63;;;16.50;98.20;;;;;;5027627;28;20398;-77
2023/04/10 10:23:05;;;;;;;;;;;16.60;97.60;;;;;;5029917;28;20113;-77
2023/04/10 10:25:33;;;;;;;9.52;8.52;;;16.40;97.60;;;;;;5037971;27;19935;-77
2023/04/10 10:28:02;;;;;;;10.65;9.15;;;16.60;98.20;;;;;;5030169;28;20049;-77
2023/04/10 10:30:32;;;;;;;9.30;8.40;;;16.70;98.10;;;;;;5032109;28;20506;-77
2023/04/10 10:32:59;;;;;;;8.30;7.60;;;16.60;97.40;;;;;;5034567;28;20487;-76
2023/04/10 10:35:30;;;;;;;7.97;7.27;;;16.50;96.80;;;;;;5040983;28;20376;-77
2023/04/10 10:37:59;;;;;;;10.90;7.68;;;16.60;97.20;;;;;;5033023;28;20048;-75
2023/04/10 10:40:30;;;;;;;7.72;7.03;;;16.70;97.80;;;;;;5029917;28;20041;-78
2023/04/10 10:43:32;;;;;;;8.40;6.90;;;16.80;97.80;;;;;;5026560;28;20046;-78
2023/04/10 10:46:13;;;;;;;8.55;7.00;;;17.00;98.10;;;;;;5073660;28;20053;-78
2023/04/10 10:48:39;;;;;;;7.50;6.80;;;17.20;97.90;;;;;;5026392;28;20049;-78
2023/04/10 10:51:05;;;;;;;6.82;6.22;;;17.20;97.40;;;;;;5037073;28;20045;-78
2023/04/10 10:53:37;;;;;;;7.07;6.10;;;17.20;96.60;;;;;;5029711;28;20049;-79
2023/04/10 10:56:32;;;;;;;8.57;6.32;;;17.10;97.00;;;;;;5025512;28;20047;-78
2023/04/10 10:58:58;;;;;;;6.60;6.00;;;17.10;96.60;;;;;;5086117;27;20055;-78
2023/04/10 11:01:25;;;;;;;6.90;5.50;;;17.30;97.30;;;;;;5112970;27;20036;-77
2023/04/10 11:03:50;;;;;;;7.32;5.30;;;17.30;96.70;;;;;;5114990;27;20054;-77
2023/04/10 11:06:40;;;;;;;6.47;5.60;;;17.20;96.30;;;;;;5118466;27;20122;-77
2023/04/10 11:09:06;;;;;;;6.95;5.38;;;17.10;96.10;;;;;;5115153;27;20073;-78
2023/04/10 11:11:58;;;;;;;5.40;4.90;;;17.20;96.70;;;;;;5114779;27;20142;-78
2023/04/10 11:14:23;;;;;;;5.88;5.30;;;17.30;96.70;;;;;;5115710;27;20041;-78
2023/04/10 11:16:49;;;;;;;8.57;6.00;;;17.30;95.80;;;;;;5117066;27;20532;-77
2023/04/10 11:19:16;;;;;;;6.82;5.47;;;17.30;96.10;;;;;;5106206;27;20047;-77
2023/04/10 11:22:05;;;;;;;6.18;5.55;;;17.30;96.00;;;;;;5083956;28;20123;-78
2023/04/10 11:24:57;;;;;;;5.70;5.15;;;17.40;96.40;;;;;;5097048;28;20044;-78
2023/04/10 11:27:44;;;;;;;5.75;4.78;;;17.40;96.10;;;;;;5114253;28;20054;-78
2023/04/10 11:30:24;;;;;;;;;;;17.50;95.10;;;;;;5114128;27;20118;-78
2023/04/10 11:32:50;;;;;;;5.25;4.75;;;17.50;95.00;;;;;;5111628;27;20055;-77
2023/04/10 11:35:18;;;;;;;4.70;4.30;;;17.40;95.10;;;;;;5111484;27;20052;-78
2023/04/10 11:37:44;;;;;;;6.10;4.30;;;17.30;94.80;;;;;;5093377;28;20477;-78
2023/04/10 11:40:10;;;;;;;5.78;4.70;;;17.30;94.70;;;;;;5092865;27;20046;-78
2023/04/10 11:42:36;;;;;;;6.05;5.18;;;17.30;95.20;;;;;;5109983;27;20127;-78
2023/04/10 11:45:25;;;;;;;4.82;4.43;;;17.30;94.60;;;;;;5089823;28;20123;-78
2023/04/10 11:47:54;;;;;;;5.43;4.78;;;17.20;94.60;;;;;;5110038;27;20518;-78
2023/04/10 11:50:20;;;;;;;5.45;4.70;;;17.00;95.20;;;;;;5108331;27;20043;-78
2023/04/10 11:52:50;;;;;;;5.10;4.53;;;17.10;95.60;;;;;;5108545;27;20405;-78
2023/04/10 11:55:16;;;;;;;5.60;5.05;;;16.90;94.80;;;;;;5087135;28;20044;-78
2023/04/10 11:57:43;;;;;;;5.47;4.93;;;16.90;95.90;;;;;;5092386;28;20078;-78
2023/04/10 12:00:10;;;;;;;5.57;4.90;;;17.00;95.40;;;;;;5115501;28;20217;-77
2023/04/10 12:02:52;;;;;;;6.80;5.00;;;17.00;95.40;;;;;;5111282;28;20040;-78
2023/04/10 12:05:17;;;;;;;5.88;5.28;;;17.00;96.60;;;;;;5143294;27;20066;-80
2023/04/10 12:07:43;;;;;;;8.30;5.22;;;17.30;96.60;;;;;;5120441;27;20103;-78
2023/04/10 12:10:09;;;;;;;5.18;4.55;;;17.30;96.30;;;;;;5107590;28;20051;-78
2023/04/10 12:12:35;;;;;;;6.25;4.88;;;17.40;95.80;;;;;;5110116;28;20065;-77
2023/04/10 12:15:02;;;;;;;10.43;5.15;;;17.30;95.90;;;;;;5109658;28;20392;-78
2023/04/10 12:17:28;;;;;;;5.78;4.70;;;17.60;96.50;;;;;;5107296;28;20034;-78
2023/04/10 12:19:54;;;;;;;4.68;4.28;;;17.60;96.10;;;;;;5110965;28;20065;-78
2023/04/10 12:22:20;;;;;;;7.72;4.60;;;17.70;95.00;;;;;;5109302;28;20031;-78
2023/04/10 12:24:50;;;;;;;5.63;4.72;;;17.80;95.90;;;;;;5104769;28;20035;-78
2023/04/10 12:27:21;;;;;;;5.65;4.70;;;17.80;95.30;;;;;;5122295;27;20044;-78
2023/04/10 12:29:48;;;;;;;5.63;4.63;;;17.90;96.00;;;;;;5108273;27;20114;-78
2023/04/10 12:32:14;;;;;;;4.85;4.40;;;18.20;96.90;;;;;;5107671;28;20040;-78
2023/04/10 12:34:40;;;;;;;6.15;4.57;;;18.20;96.30;;;;;;5107864;28;20485;-78
2023/04/10 12:37:08;;;;;;;4.65;4.25;;;18.40;95.70;;;;;;5106025;27;20516;-78
2023/04/10 12:39:34;;;;;;;4.57;4.13;;;18.40;95.50;;;;;;5110677;28;20416;-78
2023/04/10 12:42:19;;;;;;;7.82;4.40;;;18.20;95.00;;;;;;5109115;28;20091;-78
2023/04/10 12:44:53;;;;;;;5.32;4.18;;;18.10;95.40;;;;;;5105393;28;20071;-78